HETB/TCP METAR and TAF weather

Enter ICAO airport designator
Station Type Date Time Source
HETB METAR 2022/12/01 00:00 UTC NOAA

HETB 010000Z 12006KT CAVOK 13/11 Q1017 NOSIG


Station Type Date Time Source
HETB Decoded METAR 2022/12/01 00:00 UTC NOAA

Taba, Egypt (HETB) 29-35-57N 034-46-36E
Nov 30, 2022 - 07:00 PM EST / 2022.12.01 0000 UTC
Wind: from the ESE (120 degrees) at 7 MPH (6 KT):0
Visibility: greater than 7 mile(s):0
Temperature: 55 F (13 C)
Dew Point: 51 F (11 C)
Relative Humidity: 87%
Pressure (altimeter): 30.03 in. Hg (1017 hPa)
ob: HETB 010000Z 12006KT CAVOK 13/11 Q1017 NOSIG
cycle: 0

Station Type Date Time Source
HETB TAF 2022/12/08 12:54 UTC NOAA

TAF HETB 081100Z 0812/0918 33012KT CAVOK

Example: see airport list